Terminal Aerodrome Forecast
Issued by NWS Sioux Falls, SD

Home | Current Version | Previous Version | Text Only | Print | Product List | Glossary On
Versions: 1 2 3 4 5 6 7 8 9 10 11 12 13 14
000
FTUS43 KFSD 160500
TAFSUX
TAF
KSUX 160520Z 1606/1706 14015KT P6SM BKN150
     FM160700 15014KT P6SM BKN150 WS012/19045KT
     FM161300 18017G24KT P6SM BKN120
     FM161600 23014G19KT P6SM SCT060 OVC100
     FM161900 27017G23KT P6SM SCT020 OVC040
     FM162100 30021G34KT P6SM -SHRA OVC025
     FM170000 33020G28KT P6SM BKN025
     FM170400 33016G22KT P6SM SCT025=

USA.gov is the U.S. government's official web portal to all federal, state and local government web resources and services.